createdAt,value
2022-12-27T00:02:24.502Z,67.11
2022-12-27T00:04:54.022Z,67.46
2022-12-27T00:07:21.977Z,67.66
2022-12-27T00:09:50.156Z,67.95
2022-12-27T00:12:18.158Z,68.01
2022-12-27T00:14:46.321Z,68.35
2022-12-27T00:17:14.179Z,67.42
2022-12-27T00:19:43.717Z,67.86
2022-12-27T00:22:11.717Z,68.43
2022-12-27T00:24:40.529Z,68.79
2022-12-27T00:27:08.621Z,68.30
2022-12-27T00:29:36.813Z,68.41
2022-12-27T00:32:05.031Z,68.41
2022-12-27T00:34:33.319Z,68.87
2022-12-27T00:37:02.613Z,69.31
2022-12-27T00:39:30.834Z,70.00
2022-12-27T00:41:58.776Z,70.79
2022-12-27T00:44:26.925Z,71.36
2022-12-27T00:46:54.857Z,71.76
2022-12-27T00:49:23.222Z,72.26
2022-12-27T00:51:51.613Z,72.52
2022-12-27T00:54:21.159Z,72.62
2022-12-27T00:56:49.312Z,72.27
2022-12-27T00:59:17.590Z,72.18
2022-12-27T01:01:45.829Z,70.51
2022-12-27T01:04:15.647Z,70.39
2022-12-27T01:06:43.965Z,70.26
2022-12-27T01:09:12.184Z,70.55
2022-12-27T01:11:42.631Z,70.60
2022-12-27T01:14:10.979Z,71.23
2022-12-27T01:16:40.498Z,71.72
2022-12-27T01:19:08.709Z,71.99
2022-12-27T01:21:36.633Z,72.55
2022-12-27T01:24:07.014Z,72.98
2022-12-27T01:26:35.000Z,73.33
2022-12-27T01:29:04.559Z,73.13
2022-12-27T01:31:32.676Z,73.32
2022-12-27T01:34:01.402Z,73.51
2022-12-27T01:36:31.451Z,73.44
2022-12-27T01:39:00.810Z,73.65
2022-12-27T01:41:48.171Z,73.62
2022-12-27T01:44:56.226Z,73.07
2022-12-27T01:47:43.652Z,72.92
2022-12-27T01:50:17.628Z,72.81
2022-12-27T01:52:48.709Z,72.85
2022-12-27T01:55:21.840Z,72.99
2022-12-27T01:57:50.039Z,73.35
2022-12-27T02:00:20.246Z,74.08
2022-12-27T02:02:48.532Z,74.35
2022-12-27T02:05:18.669Z,74.38
2022-12-27T02:07:56.805Z,74.96
2022-12-27T02:10:25.164Z,74.76
2022-12-27T02:12:53.473Z,74.94
2022-12-27T02:15:22.991Z,75.26
2022-12-27T02:17:50.936Z,75.88
2022-12-27T02:20:21.480Z,76.42
2022-12-27T02:23:39.193Z,77.05
2022-12-27T02:26:37.041Z,76.31
2022-12-27T02:29:15.522Z,75.97
2022-12-27T02:31:49.224Z,76.36
2022-12-27T02:34:21.250Z,76.40
2022-12-27T02:36:53.079Z,76.30
2022-12-27T02:39:21.891Z,76.14
2022-12-27T02:42:07.586Z,76.98
2022-12-27T02:44:55.263Z,77.53
2022-12-27T02:47:43.070Z,77.43
2022-12-27T02:50:29.701Z,78.29
2022-12-27T02:53:07.927Z,78.61
2022-12-27T02:56:05.766Z,79.25
2022-12-27T02:58:39.798Z,79.46
2022-12-27T03:01:33.410Z,80.20
2022-12-27T03:04:13.588Z,81.01
2022-12-27T03:06:49.303Z,81.49
2022-12-27T03:09:50.676Z,81.78
2022-12-27T03:12:42.563Z,81.88
2022-12-27T03:15:41.244Z,82.52
2022-12-27T03:18:13.710Z,82.69
2022-12-27T03:21:00.859Z,82.58
2022-12-27T03:23:46.934Z,83.39
2022-12-27T03:26:16.362Z,83.68
2022-12-27T03:29:03.365Z,83.72
2022-12-27T03:31:52.238Z,84.29
2022-12-27T03:34:35.796Z,84.53
2022-12-27T03:37:23.765Z,84.30
2022-12-27T03:39:57.487Z,84.40
2022-12-27T03:42:45.910Z,84.30
2022-12-27T03:45:15.447Z,84.23
2022-12-27T03:47:47.579Z,84.22
2022-12-27T03:50:21.858Z,84.04
2022-12-27T03:52:53.426Z,83.61
2022-12-27T03:55:22.293Z,82.70
2022-12-27T03:57:50.599Z,81.93
2022-12-27T04:00:18.841Z,81.67
2022-12-27T04:02:47.099Z,82.05
2022-12-27T04:05:16.672Z,82.62
2022-12-27T04:08:03.800Z,82.25
2022-12-27T04:10:49.607Z,82.09
2022-12-27T04:13:35.322Z,82.12
2022-12-27T04:16:21.007Z,82.82
2022-12-27T04:19:06.685Z,82.60
2022-12-27T04:21:53.732Z,83.02
2022-12-27T04:24:39.538Z,82.77
2022-12-27T04:27:25.276Z,82.85
2022-12-27T04:30:11.246Z,83.72
2022-12-27T04:32:57.081Z,84.62
2022-12-27T04:35:25.242Z,84.43
2022-12-27T04:37:54.490Z,84.19
2022-12-27T04:40:40.503Z,83.91
2022-12-27T04:43:26.661Z,84.03
2022-12-27T04:46:13.610Z,84.11
2022-12-27T04:48:59.345Z,83.75
2022-12-27T04:51:45.050Z,83.97
2022-12-27T04:54:36.006Z,84.70
2022-12-27T04:57:04.337Z,84.80
2022-12-27T04:59:50.303Z,84.80
2022-12-27T05:02:19.604Z,84.75
2022-12-27T05:04:48.522Z,85.20
2022-12-27T05:07:34.410Z,85.42
2022-12-27T05:10:23.804Z,85.28
2022-12-27T05:13:21.074Z,85.41
2022-12-27T05:15:49.627Z,85.75
2022-12-27T05:18:17.852Z,85.63
2022-12-27T05:20:45.727Z,86.06
2022-12-27T05:23:31.598Z,86.13
2022-12-27T05:26:00.852Z,86.49
2022-12-27T05:28:29.077Z,86.21
2022-12-27T05:31:01.895Z,86.15
2022-12-27T05:33:34.009Z,86.20
2022-12-27T05:36:01.983Z,86.20
2022-12-27T05:38:30.106Z,86.04
2022-12-27T05:40:59.387Z,86.17
2022-12-27T05:43:29.570Z,86.27
2022-12-27T05:46:04.003Z,86.25
2022-12-27T05:48:32.277Z,86.43
2022-12-27T05:51:00.652Z,86.75
2022-12-27T05:53:28.804Z,87.33
2022-12-27T05:55:56.968Z,88.11
2022-12-27T05:58:25.730Z,88.39
2022-12-27T06:00:55.017Z,88.28
2022-12-27T06:03:23.376Z,88.68
2022-12-27T06:05:51.492Z,88.61
2022-12-27T06:08:19.714Z,88.63
2022-12-27T06:10:47.697Z,88.81
2022-12-27T06:13:15.944Z,88.51
2022-12-27T06:15:43.903Z,89.35
2022-12-27T06:18:13.445Z,89.77
2022-12-27T06:20:41.369Z,89.56
2022-12-27T06:23:09.524Z,89.76
2022-12-27T06:25:38.482Z,90.22
2022-12-27T06:28:06.664Z,89.90
2022-12-27T06:30:36.373Z,89.53
2022-12-27T06:33:04.985Z,89.35
2022-12-27T06:35:34.290Z,88.84
2022-12-27T06:38:02.584Z,88.59
2022-12-27T06:40:30.535Z,88.60
2022-12-27T06:42:58.715Z,88.34
2022-12-27T06:45:26.648Z,88.60
2022-12-27T06:47:54.927Z,88.79
2022-12-27T06:50:22.916Z,88.91
2022-12-27T06:52:54.093Z,88.14
2022-12-27T06:55:22.205Z,88.17
2022-12-27T06:57:51.499Z,88.73
2022-12-27T07:00:20.714Z,88.66
2022-12-27T07:02:49.332Z,89.34
2022-12-27T07:05:17.456Z,89.69
2022-12-27T07:07:45.642Z,90.34
2022-12-27T07:10:14.974Z,90.65
2022-12-27T07:12:43.423Z,91.04
2022-12-27T07:15:11.669Z,91.17
2022-12-27T07:17:39.898Z,90.83
2022-12-27T07:20:09.209Z,91.73
2022-12-27T07:22:37.455Z,91.47
2022-12-27T07:25:06.341Z,91.36
2022-12-27T07:27:36.187Z,91.49
2022-12-27T07:30:04.544Z,92.08
2022-12-27T07:32:33.039Z,91.88
2022-12-27T07:35:00.955Z,91.95
2022-12-27T07:37:29.366Z,91.73
2022-12-27T07:39:57.323Z,91.55
2022-12-27T07:42:25.541Z,91.18
2022-12-27T07:44:54.966Z,90.31
2022-12-27T07:47:23.160Z,89.58
2022-12-27T07:49:51.025Z,89.43
2022-12-27T07:52:19.167Z,89.49
2022-12-27T07:54:47.099Z,89.44
2022-12-27T07:57:15.257Z,89.31
2022-12-27T07:59:43.210Z,89.13
2022-12-27T08:02:13.726Z,88.62
2022-12-27T08:04:41.736Z,88.27
2022-12-27T08:07:13.549Z,87.83
2022-12-27T08:09:43.395Z,88.07
2022-12-27T08:12:13.385Z,87.87
2022-12-27T08:14:41.568Z,87.14
2022-12-27T08:17:16.473Z,87.15
2022-12-27T08:19:44.548Z,86.59
2022-12-27T08:22:12.676Z,86.60
2022-12-27T08:24:41.553Z,86.32
2022-12-27T08:27:09.893Z,86.02
2022-12-27T08:29:38.345Z,86.16
2022-12-27T08:32:06.612Z,85.71
2022-12-27T08:34:35.860Z,85.65
2022-12-27T08:37:04.094Z,84.89
2022-12-27T08:39:32.012Z,84.62
2022-12-27T08:42:00.180Z,84.46
2022-12-27T08:44:28.166Z,84.25
2022-12-27T08:46:56.428Z,84.30
2022-12-27T08:49:24.414Z,84.18
2022-12-27T08:51:54.032Z,84.01
2022-12-27T08:54:21.956Z,84.29
2022-12-27T08:56:50.224Z,84.31
2022-12-27T08:59:18.116Z,84.50
2022-12-27T09:01:46.414Z,84.09
2022-12-27T09:04:14.500Z,83.69
2022-12-27T09:06:42.779Z,83.64
2022-12-27T09:09:12.087Z,84.18
2022-12-27T09:11:40.409Z,84.05
2022-12-27T09:14:08.366Z,83.59
2022-12-27T09:16:36.649Z,83.89
2022-12-27T09:19:05.081Z,83.24
2022-12-27T09:21:34.886Z,83.52
2022-12-27T09:24:03.167Z,82.97
2022-12-27T09:26:32.940Z,82.37
2022-12-27T09:29:01.942Z,83.16
2022-12-27T09:31:33.171Z,83.30
2022-12-27T09:34:01.119Z,83.63
2022-12-27T09:36:30.596Z,83.80
2022-12-27T09:38:59.235Z,83.45
2022-12-27T09:44:30.189Z,83.15
2022-12-27T09:47:02.238Z,83.61
2022-12-27T09:49:32.984Z,83.28
2022-12-27T09:52:04.622Z,83.39
2022-12-27T09:54:37.350Z,83.11
2022-12-27T09:57:20.836Z,83.56
2022-12-27T09:59:50.783Z,83.14
2022-12-27T10:02:23.018Z,83.16
2022-12-27T10:07:46.698Z,82.67
2022-12-27T10:10:20.030Z,82.27
2022-12-27T10:13:04.367Z,81.23
2022-12-27T10:15:37.282Z,81.04
2022-12-27T10:18:12.989Z,80.79
2022-12-27T10:20:54.662Z,80.44
2022-12-27T10:23:25.021Z,79.83
2022-12-27T10:25:56.279Z,79.45
2022-12-27T10:28:29.280Z,79.37
2022-12-27T10:30:57.396Z,79.02
2022-12-27T10:33:28.710Z,78.71
2022-12-27T10:35:58.136Z,78.90
2022-12-27T10:38:33.010Z,79.01
2022-12-27T10:41:15.029Z,78.63
2022-12-27T10:43:46.683Z,79.00
2022-12-27T10:46:16.934Z,78.39
2022-12-27T10:49:20.193Z,78.73
2022-12-27T10:51:45.331Z,78.55
2022-12-27T10:54:15.246Z,79.16
2022-12-27T10:56:44.195Z,78.11
2022-12-27T10:59:16.799Z,77.96
2022-12-27T11:01:45.836Z,78.02
2022-12-27T11:04:21.091Z,77.83
2022-12-27T11:06:51.398Z,77.36
2022-12-27T11:09:31.572Z,76.94
2022-12-27T11:12:19.007Z,77.14
2022-12-27T11:14:57.692Z,76.06
2022-12-27T11:17:28.111Z,76.17
2022-12-27T11:19:57.809Z,76.51
2022-12-27T11:22:26.509Z,76.37
2022-12-27T11:24:57.080Z,76.24
2022-12-27T11:27:26.772Z,76.48
2022-12-27T11:29:59.275Z,74.93
2022-12-27T11:32:27.448Z,72.36
2022-12-27T11:34:56.229Z,70.58
2022-12-27T11:37:25.741Z,69.08
2022-12-27T11:39:55.888Z,67.80
2022-12-27T11:42:39.367Z,66.27
2022-12-27T11:45:20.118Z,64.36
2022-12-27T11:47:51.256Z,62.23
2022-12-27T11:50:53.775Z,61.84
2022-12-27T11:53:55.826Z,59.66
2022-12-27T11:56:25.837Z,58.68
2022-12-27T11:59:04.374Z,57.86
2022-12-27T12:01:49.215Z,59.09
2022-12-27T12:04:37.397Z,55.82
2022-12-27T12:07:13.021Z,57.04
2022-12-27T12:09:57.719Z,55.72
2022-12-27T12:12:51.661Z,57.82
2022-12-27T12:15:34.599Z,60.17
2022-12-27T12:18:14.435Z,63.23
2022-12-27T12:21:13.619Z,65.76
2022-12-27T12:23:54.569Z,67.92
2022-12-27T12:26:23.088Z,68.05
2022-12-27T12:29:29.021Z,70.04
2022-12-27T12:32:34.678Z,69.78
2022-12-27T12:35:41.170Z,68.93
2022-12-27T12:38:19.734Z,67.74
2022-12-27T12:41:00.585Z,65.67
2022-12-27T12:43:46.382Z,64.23
2022-12-27T12:46:24.646Z,62.43
2022-12-27T12:49:26.313Z,64.02
2022-12-27T12:52:15.463Z,65.01
2022-12-27T12:55:05.057Z,66.38
2022-12-27T12:57:44.349Z,67.59
2022-12-27T13:00:42.386Z,67.50
2022-12-27T13:03:24.359Z,68.35
2022-12-27T13:05:54.895Z,68.53
2022-12-27T13:08:30.415Z,67.72
2022-12-27T13:11:07.976Z,68.44
2022-12-27T13:13:45.849Z,68.63
2022-12-27T13:16:21.592Z,67.43
2022-12-27T13:18:58.575Z,66.41
2022-12-27T13:21:36.642Z,65.16
2022-12-27T13:24:15.620Z,65.98
2022-12-27T13:26:49.761Z,64.76
2022-12-27T13:29:33.164Z,62.24
2022-12-27T13:32:07.787Z,60.78
2022-12-27T13:34:44.733Z,59.39
2022-12-27T13:37:20.938Z,59.08
2022-12-27T13:40:03.070Z,57.98
2022-12-27T13:42:45.354Z,56.62
2022-12-27T13:45:23.992Z,55.01
2022-12-27T13:47:59.555Z,53.65
2022-12-27T13:50:55.041Z,53.90
2022-12-27T13:53:59.304Z,57.00
2022-12-27T13:59:52.244Z,61.62
2022-12-27T14:02:34.614Z,61.77
2022-12-27T14:05:51.016Z,60.91
2022-12-27T14:08:28.229Z,55.95
2022-12-27T14:11:00.791Z,54.04
2022-12-27T14:13:34.451Z,54.05
2022-12-27T14:16:24.161Z,56.71
2022-12-27T14:19:03.203Z,55.66
2022-12-27T14:21:48.682Z,56.72
2022-12-27T14:24:33.165Z,57.45
2022-12-27T14:27:34.273Z,59.20
2022-12-27T14:30:46.166Z,60.26
2022-12-27T14:33:39.423Z,63.65
2022-12-27T14:36:35.130Z,64.83
2022-12-27T14:39:31.918Z,66.29
2022-12-27T14:42:20.037Z,66.84
2022-12-27T14:45:25.051Z,66.60
2022-12-27T14:48:11.365Z,68.44
2022-12-27T14:51:50.008Z,68.51
2022-12-27T14:54:25.010Z,67.86
2022-12-27T14:56:58.802Z,68.47
2022-12-27T14:59:37.200Z,68.06
2022-12-27T15:02:17.538Z,68.45
2022-12-27T15:05:05.146Z,67.90
2022-12-27T15:08:11.270Z,67.38
2022-12-27T15:10:53.233Z,67.64
2022-12-27T15:13:29.470Z,67.40
2022-12-27T15:16:03.338Z,67.27
2022-12-27T15:18:43.782Z,67.04
2022-12-27T15:21:25.163Z,67.45
2022-12-27T15:23:54.978Z,68.32
2022-12-27T15:26:30.111Z,71.07
2022-12-27T15:29:09.182Z,72.58
2022-12-27T15:31:45.073Z,73.44
2022-12-27T15:34:25.204Z,73.85
2022-12-27T15:36:55.058Z,75.16
2022-12-27T15:39:53.484Z,75.96
2022-12-27T15:42:37.260Z,76.63
2022-12-27T15:45:18.489Z,76.46
2022-12-27T15:48:09.649Z,77.40
2022-12-27T15:50:51.407Z,77.23
2022-12-27T15:53:32.817Z,78.15
2022-12-27T15:56:17.860Z,78.64
2022-12-27T15:58:46.611Z,78.80
2022-12-27T16:01:27.915Z,78.77
2022-12-27T16:03:58.723Z,78.41
2022-12-27T16:06:48.470Z,78.18
2022-12-27T16:09:33.762Z,77.71
2022-12-27T16:12:05.856Z,77.23
2022-12-27T16:14:38.200Z,76.98
2022-12-27T16:17:22.985Z,76.43
2022-12-27T16:20:14.951Z,76.33
2022-12-27T16:22:44.835Z,75.70
2022-12-27T16:25:30.567Z,75.47
2022-12-27T16:28:02.770Z,75.32
2022-12-27T16:30:43.088Z,75.03
2022-12-27T16:33:31.066Z,75.06
2022-12-27T16:36:14.006Z,75.36
2022-12-27T16:38:47.155Z,75.76
2022-12-27T16:41:21.267Z,75.66
2022-12-27T16:43:54.209Z,75.83
2022-12-27T16:46:34.015Z,76.01
2022-12-27T16:49:29.176Z,76.06
2022-12-27T16:52:09.058Z,75.66
2022-12-27T16:54:48.797Z,75.54
2022-12-27T16:57:42.034Z,75.94
2022-12-27T17:00:36.592Z,75.82
2022-12-27T17:03:45.118Z,75.91
2022-12-27T17:06:50.479Z,76.78
2022-12-27T17:09:41.603Z,77.01
2022-12-27T17:12:20.801Z,77.59
2022-12-27T17:14:53.885Z,77.12
2022-12-27T17:17:23.121Z,77.14
2022-12-27T17:19:57.047Z,76.70
2022-12-27T17:22:32.116Z,76.68
2022-12-27T17:25:03.585Z,76.96
2022-12-27T17:27:47.831Z,77.33
2022-12-27T17:30:20.579Z,77.12
2022-12-27T17:33:33.705Z,77.00
2022-12-27T17:36:31.700Z,77.39
2022-12-27T17:39:08.841Z,77.68
2022-12-27T17:42:04.751Z,78.07
2022-12-27T17:44:51.819Z,77.71
2022-12-27T17:47:37.004Z,77.56
2022-12-27T17:50:07.212Z,77.37
2022-12-27T17:52:53.165Z,77.22
2022-12-27T17:55:40.049Z,78.32
2022-12-27T17:58:10.904Z,78.54
2022-12-27T18:00:42.736Z,78.97
2022-12-27T18:03:13.869Z,79.15
2022-12-27T18:05:43.312Z,79.75
2022-12-27T18:08:20.351Z,79.61
2022-12-27T18:10:48.572Z,78.93
2022-12-27T18:13:18.908Z,78.62
2022-12-27T18:15:48.587Z,78.58
2022-12-27T18:18:20.678Z,78.49
2022-12-27T18:20:55.153Z,78.08
2022-12-27T18:23:23.555Z,77.88
2022-12-27T18:25:54.602Z,77.62
2022-12-27T18:28:30.412Z,77.24
2022-12-27T18:31:04.142Z,77.44
2022-12-27T18:33:36.080Z,77.31
2022-12-27T18:36:05.853Z,76.92
2022-12-27T18:38:36.427Z,77.69
2022-12-27T18:41:06.490Z,77.82
2022-12-27T18:43:36.017Z,77.69
2022-12-27T18:46:04.872Z,78.03
2022-12-27T18:48:36.459Z,77.62
2022-12-27T18:51:04.818Z,77.88
2022-12-27T18:53:36.830Z,78.14
2022-12-27T18:56:07.007Z,78.02
2022-12-27T18:58:35.431Z,78.06
2022-12-27T19:01:05.737Z,77.81
2022-12-27T19:03:40.370Z,77.95
2022-12-27T19:06:10.144Z,78.11
2022-12-27T19:08:39.970Z,77.71
2022-12-27T19:11:08.054Z,77.43
2022-12-27T19:13:43.317Z,78.00
2022-12-27T19:16:22.248Z,78.35
2022-12-27T19:18:53.761Z,78.77
2022-12-27T19:21:30.097Z,78.47
2022-12-27T19:23:58.468Z,77.89
2022-12-27T19:26:32.634Z,77.74
2022-12-27T19:29:04.171Z,76.99
2022-12-27T19:31:32.467Z,76.75
2022-12-27T19:34:03.694Z,76.32
2022-12-27T19:36:34.993Z,75.77
2022-12-27T19:39:03.323Z,75.55
2022-12-27T19:41:31.713Z,75.73
2022-12-27T19:44:00.033Z,75.96
2022-12-27T19:46:31.096Z,75.82
2022-12-27T19:51:48.976Z,75.42
2022-12-27T19:54:19.928Z,75.30
2022-12-27T19:56:48.369Z,75.16
2022-12-27T19:59:18.235Z,75.21
2022-12-27T20:01:46.437Z,75.33
2022-12-27T20:04:14.914Z,75.08
2022-12-27T20:06:43.565Z,75.36
2022-12-27T20:09:15.094Z,75.83
2022-12-27T20:11:43.123Z,75.23
2022-12-27T20:14:11.747Z,74.93
2022-12-27T20:16:40.227Z,75.42
2022-12-27T20:19:08.536Z,75.28
2022-12-27T20:21:36.464Z,74.89
2022-12-27T20:24:04.992Z,74.81
2022-12-27T20:26:34.329Z,75.04
2022-12-27T20:29:02.657Z,75.38
2022-12-27T20:31:30.639Z,75.37
2022-12-27T20:33:59.333Z,75.37
2022-12-27T20:36:27.286Z,75.64
2022-12-27T20:38:55.591Z,75.51
2022-12-27T20:41:24.125Z,75.52
2022-12-27T20:43:57.785Z,75.54
2022-12-27T20:46:26.279Z,75.66
2022-12-27T20:48:56.249Z,75.37
2022-12-27T20:51:27.131Z,75.49
2022-12-27T20:53:56.522Z,75.85
2022-12-27T20:56:24.695Z,75.79
2022-12-27T20:58:53.413Z,75.68
2022-12-27T21:01:24.259Z,75.83
2022-12-27T21:03:52.760Z,75.69
2022-12-27T21:06:22.528Z,75.65
2022-12-27T21:08:56.659Z,75.81
2022-12-27T21:11:27.731Z,75.90
2022-12-27T21:13:56.261Z,76.04
2022-12-27T21:16:27.476Z,76.13
2022-12-27T21:18:56.885Z,76.23
2022-12-27T21:21:28.243Z,76.66
2022-12-27T21:23:57.356Z,77.41
2022-12-27T21:26:27.494Z,78.02
2022-12-27T21:28:56.103Z,77.77
2022-12-27T21:31:25.564Z,77.55
2022-12-27T21:33:53.984Z,77.94
2022-12-27T21:36:24.416Z,79.45
2022-12-27T21:38:52.717Z,79.32
2022-12-27T21:41:22.215Z,79.31
2022-12-27T21:43:51.260Z,76.69
2022-12-27T21:46:21.957Z,75.97
2022-12-27T21:48:55.811Z,76.19
2022-12-27T21:51:23.841Z,76.43
2022-12-27T21:53:52.247Z,76.14
2022-12-27T21:56:20.395Z,76.43
2022-12-27T21:58:49.086Z,76.90
2022-12-27T22:01:19.173Z,77.30
2022-12-27T22:03:48.687Z,77.70
2022-12-27T22:06:19.186Z,78.39
2022-12-27T22:08:49.272Z,77.64
2022-12-27T22:11:18.359Z,78.47
2022-12-27T22:13:47.127Z,78.07
2022-12-27T22:16:17.365Z,77.56
2022-12-27T22:18:46.194Z,77.96
2022-12-27T22:21:21.145Z,78.65
2022-12-27T22:23:52.621Z,78.96
2022-12-27T22:26:23.056Z,78.83
2022-12-27T22:28:52.412Z,78.60
2022-12-27T22:31:22.601Z,78.62
2022-12-27T22:33:51.998Z,79.19
2022-12-27T22:36:23.728Z,79.42
2022-12-27T22:38:53.628Z,79.44
2022-12-27T22:41:25.232Z,79.42
2022-12-27T22:43:55.027Z,79.20
2022-12-27T22:46:23.877Z,79.43
2022-12-27T22:48:52.677Z,80.10
2022-12-27T22:51:24.409Z,80.43
2022-12-27T22:53:52.989Z,80.69
2022-12-27T22:56:22.902Z,80.75
2022-12-27T22:58:51.048Z,81.17
2022-12-27T23:01:20.754Z,81.24
2022-12-27T23:03:49.795Z,81.53
2022-12-27T23:06:17.941Z,82.40
2022-12-27T23:08:47.896Z,82.63
2022-12-27T23:11:17.719Z,83.03
2022-12-27T23:13:46.377Z,83.42
2022-12-27T23:16:14.439Z,83.59
2022-12-27T23:18:42.748Z,83.11
2022-12-27T23:21:19.988Z,83.02
2022-12-27T23:23:53.661Z,82.83
2022-12-27T23:26:23.048Z,82.39
2022-12-27T23:28:52.797Z,82.86
2022-12-27T23:31:22.449Z,83.06
2022-12-27T23:33:50.755Z,83.53
2022-12-27T23:36:19.605Z,83.50
2022-12-27T23:38:48.490Z,84.01
2022-12-27T23:41:19.656Z,83.23
2022-12-27T23:43:53.796Z,83.08
2022-12-27T23:46:25.644Z,82.86
2022-12-27T23:48:54.331Z,82.61
2022-12-27T23:51:23.053Z,82.84
2022-12-27T23:53:51.626Z,82.10
2022-12-27T23:56:22.809Z,82.53
2022-12-27T23:58:52.704Z,82.32
